createdAt,value
2022-11-08T00:01:38.502Z,3.60
2022-11-08T00:06:59.110Z,3.50
2022-11-08T00:12:20.101Z,3.50
2022-11-08T00:17:23.752Z,3.50
2022-11-08T00:22:29.130Z,3.50
2022-11-08T00:27:30.971Z,3.50
2022-11-08T00:32:33.003Z,3.50
2022-11-08T00:37:34.838Z,3.40
2022-11-08T00:42:36.693Z,3.40
2022-11-08T00:47:38.509Z,3.20
2022-11-08T00:52:40.324Z,3.40
2022-11-08T00:57:58.559Z,3.40
2022-11-08T01:03:19.135Z,3.30
2022-11-08T01:08:22.883Z,3.30
2022-11-08T01:13:24.709Z,3.30
2022-11-08T01:18:26.597Z,3.20
2022-11-08T01:23:28.633Z,3.20
2022-11-08T01:28:30.458Z,3.20
2022-11-08T01:33:33.008Z,3.10
2022-11-08T01:38:35.768Z,3.00
2022-11-08T01:43:43.494Z,3.20
2022-11-08T01:49:19.087Z,3.30
2022-11-08T01:54:44.336Z,3.20
2022-11-08T01:59:49.134Z,3.00
2022-11-08T02:04:51.279Z,2.70
2022-11-08T02:09:53.433Z,2.90
2022-11-08T02:14:55.244Z,2.70
2022-11-08T02:19:57.062Z,2.80
2022-11-08T02:24:59.007Z,3.00
2022-11-08T02:30:00.928Z,2.90
2022-11-08T02:35:02.862Z,3.00
2022-11-08T02:40:05.313Z,3.10
2022-11-08T02:45:08.146Z,3.00
2022-11-08T02:50:10.259Z,3.00
2022-11-08T02:55:12.068Z,3.00
2022-11-08T03:00:14.331Z,3.10
2022-11-08T03:05:16.212Z,3.10
2022-11-08T03:10:18.524Z,3.00
2022-11-08T03:15:20.439Z,2.90
2022-11-08T03:20:22.503Z,2.90
2022-11-08T03:25:24.376Z,2.70
2022-11-08T03:30:26.191Z,2.90
2022-11-08T03:35:28.412Z,3.00
2022-11-08T03:40:30.221Z,2.90
2022-11-08T03:45:32.163Z,2.70
2022-11-08T03:50:34.186Z,2.70
2022-11-08T03:55:36.039Z,2.70
2022-11-08T04:00:37.887Z,2.60
2022-11-08T04:05:39.737Z,2.70
2022-11-08T04:10:41.603Z,2.80
2022-11-08T04:15:43.373Z,2.90
2022-11-08T04:21:05.992Z,2.90
2022-11-08T04:26:11.554Z,2.90
2022-11-08T04:31:16.930Z,3.00
2022-11-08T04:36:18.786Z,2.90
2022-11-08T04:41:22.879Z,2.70
2022-11-08T04:46:27.175Z,2.60
2022-11-08T04:51:32.066Z,2.60
2022-11-08T04:56:33.899Z,2.60
2022-11-08T05:01:36.423Z,2.80
2022-11-08T05:06:38.329Z,2.80
2022-11-08T05:11:40.117Z,2.80
2022-11-08T05:16:41.901Z,2.70
2022-11-08T05:22:02.531Z,2.70
2022-11-08T05:27:04.355Z,2.80
2022-11-08T05:32:06.297Z,2.70
2022-11-08T05:37:08.177Z,2.90
2022-11-08T05:42:10.079Z,3.00
2022-11-08T05:47:11.936Z,2.90
2022-11-08T05:52:13.767Z,2.60
2022-11-08T05:57:19.915Z,2.80
2022-11-08T06:02:23.988Z,2.80
2022-11-08T06:07:25.837Z,2.60
2022-11-08T06:12:27.688Z,2.70
2022-11-08T06:17:30.427Z,2.90
2022-11-08T06:22:32.997Z,3.60
2022-11-08T06:27:36.269Z,4.30
2022-11-08T06:32:38.096Z,4.80
2022-11-08T06:37:39.921Z,5.20
2022-11-08T06:42:41.735Z,5.70
2022-11-08T06:47:43.526Z,5.90
2022-11-08T06:52:45.358Z,6.10
2022-11-08T06:57:47.171Z,6.30
2022-11-08T07:02:57.565Z,6.30
2022-11-08T07:08:00.798Z,7.00
2022-11-08T07:13:05.590Z,7.50
2022-11-08T07:18:13.122Z,7.60
2022-11-08T07:23:15.241Z,7.70
2022-11-08T07:28:18.379Z,7.90
2022-11-08T07:33:20.498Z,8.60
2022-11-08T07:38:23.357Z,8.90
2022-11-08T07:43:27.195Z,9.00
2022-11-08T07:48:31.899Z,9.00
2022-11-08T07:53:33.749Z,9.10
2022-11-08T07:58:35.780Z,9.70
2022-11-08T08:03:37.682Z,10.00
2022-11-08T08:08:39.485Z,10.20
2022-11-08T08:13:41.668Z,10.40
2022-11-08T08:18:43.480Z,10.90
2022-11-08T08:23:45.386Z,12.00
2022-11-08T08:28:47.206Z,13.00
2022-11-08T08:33:49.026Z,12.90
2022-11-08T08:38:50.824Z,12.90
2022-11-08T08:43:52.653Z,12.90
2022-11-08T08:48:54.538Z,12.20
2022-11-08T08:53:56.355Z,11.70
2022-11-08T09:04:20.028Z,11.60
2022-11-08T09:09:22.282Z,12.10
2022-11-08T09:14:24.091Z,12.60
2022-11-08T09:19:26.011Z,13.30
2022-11-08T09:24:27.836Z,14.50
2022-11-08T09:29:33.722Z,16.60
2022-11-08T09:34:35.585Z,17.00
2022-11-08T09:39:37.391Z,16.40
2022-11-08T09:45:05.707Z,16.30
2022-11-08T09:50:35.734Z,16.90
2022-11-08T09:55:43.806Z,18.50
2022-11-08T10:00:45.934Z,19.30
2022-11-08T10:06:05.801Z,17.80
2022-11-08T10:11:07.716Z,17.20
2022-11-08T10:16:39.650Z,17.60
2022-11-08T10:22:01.788Z,18.10
2022-11-08T10:27:10.585Z,18.70
2022-11-08T10:32:21.497Z,17.80
2022-11-08T10:37:24.525Z,17.60
2022-11-08T10:42:39.147Z,18.30
2022-11-08T10:47:41.354Z,17.50
2022-11-08T10:52:59.901Z,17.50
2022-11-08T10:58:01.735Z,17.60
2022-11-08T11:03:06.501Z,17.70
2022-11-08T11:08:08.286Z,17.80
2022-11-08T11:18:36.154Z,17.70
2022-11-08T11:23:51.170Z,18.40
2022-11-08T11:29:05.129Z,18.60
2022-11-08T11:34:19.295Z,18.40
2022-11-08T11:39:49.517Z,20.10
2022-11-08T11:45:17.512Z,19.80
2022-11-08T11:50:28.197Z,18.20
2022-11-08T11:55:51.962Z,19.90
2022-11-08T12:01:04.806Z,19.50
2022-11-08T12:06:28.877Z,17.10
2022-11-08T12:12:09.113Z,17.30
2022-11-08T12:17:41.324Z,18.90
2022-11-08T12:22:52.385Z,21.00
2022-11-08T12:28:18.460Z,21.20
2022-11-08T12:33:26.406Z,19.70
2022-11-08T12:38:34.145Z,20.20
2022-11-08T12:43:45.090Z,19.50
2022-11-08T12:49:14.259Z,21.00
2022-11-08T12:54:18.864Z,20.50
2022-11-08T12:59:29.195Z,20.90
2022-11-08T13:04:51.125Z,20.10
2022-11-08T13:09:58.128Z,19.10
2022-11-08T13:15:04.511Z,17.80
2022-11-08T13:20:41.922Z,17.80
2022-11-08T13:25:44.913Z,17.00
2022-11-08T13:31:01.124Z,17.30
2022-11-08T13:36:22.357Z,17.60
2022-11-08T13:41:25.978Z,18.50
2022-11-08T13:46:28.259Z,21.00
2022-11-08T13:51:30.755Z,21.40
2022-11-08T13:56:55.253Z,18.30
2022-11-08T14:02:24.280Z,16.40
2022-11-08T14:07:47.264Z,15.60
2022-11-08T14:13:29.244Z,15.30
2022-11-08T14:18:35.951Z,14.80
2022-11-08T14:23:42.428Z,14.50
2022-11-08T14:28:46.448Z,14.50
2022-11-08T14:33:49.154Z,14.60
2022-11-08T14:38:59.741Z,14.50
2022-11-08T14:44:03.965Z,14.20
2022-11-08T14:49:16.155Z,13.70
2022-11-08T14:54:26.839Z,13.10
2022-11-08T14:59:29.043Z,12.60
2022-11-08T15:04:33.373Z,12.00
2022-11-08T15:09:36.370Z,11.30
2022-11-08T15:14:46.242Z,11.10
2022-11-08T15:19:48.762Z,11.00
2022-11-08T15:25:19.891Z,10.70
2022-11-08T15:30:36.818Z,10.50
2022-11-08T15:35:39.715Z,10.20
2022-11-08T15:40:53.239Z,9.90
2022-11-08T15:45:55.553Z,9.70
2022-11-08T15:50:58.657Z,9.40
2022-11-08T15:56:03.301Z,9.40
2022-11-08T16:01:06.889Z,9.30
2022-11-08T16:06:16.688Z,9.10
2022-11-08T16:11:22.431Z,9.00
2022-11-08T16:16:24.931Z,8.90
2022-11-08T16:21:27.527Z,8.70
2022-11-08T16:26:30.312Z,8.50
2022-11-08T16:31:33.734Z,8.10
2022-11-08T16:36:36.221Z,8.20
2022-11-08T16:41:42.617Z,8.20
2022-11-08T16:46:46.321Z,8.00
2022-11-08T16:51:49.631Z,7.60
2022-11-08T16:56:56.101Z,7.40
2022-11-08T17:02:30.763Z,7.60
2022-11-08T17:07:34.497Z,7.50
2022-11-08T17:12:37.069Z,7.30
2022-11-08T17:17:39.970Z,7.40
2022-11-08T17:22:43.175Z,7.30
2022-11-08T17:27:46.382Z,7.30
2022-11-08T17:32:48.769Z,7.20
2022-11-08T17:37:51.159Z,7.10
2022-11-08T17:42:53.648Z,7.10
2022-11-08T17:47:59.106Z,6.90
2022-11-08T17:53:01.394Z,6.90
2022-11-08T17:58:03.782Z,6.80
2022-11-08T18:03:12.632Z,6.80
2022-11-08T18:08:15.011Z,6.90
2022-11-08T18:13:18.044Z,6.70
2022-11-08T18:18:20.782Z,6.70
2022-11-08T18:23:23.197Z,6.80
2022-11-08T18:28:27.428Z,6.70
2022-11-08T18:33:31.146Z,6.70
2022-11-08T18:38:35.788Z,6.10
2022-11-08T18:43:39.206Z,6.00
2022-11-08T18:48:42.505Z,6.00
2022-11-08T18:53:45.201Z,6.10
2022-11-08T18:58:47.794Z,6.20
2022-11-08T19:03:50.286Z,6.10
2022-11-08T19:08:52.996Z,6.00
2022-11-08T19:13:55.400Z,6.00
2022-11-08T19:18:58.197Z,6.00
2022-11-08T19:24:00.968Z,5.70
2022-11-08T19:29:04.369Z,5.70
2022-11-08T19:34:06.899Z,5.80
2022-11-08T19:39:13.252Z,5.70
2022-11-08T19:44:16.554Z,5.80
2022-11-08T19:49:25.595Z,5.70
2022-11-08T19:54:29.943Z,5.70
2022-11-08T19:59:39.398Z,5.60
2022-11-08T20:04:43.000Z,5.60
2022-11-08T20:09:46.545Z,5.60
2022-11-08T20:14:54.026Z,5.70
2022-11-08T20:20:06.442Z,5.60
2022-11-08T20:25:17.536Z,5.50
2022-11-08T20:30:23.725Z,5.40
2022-11-08T20:42:30.687Z,5.10
2022-11-08T20:54:36.246Z,4.90
2022-11-08T20:59:41.721Z,4.90
2022-11-08T21:04:46.990Z,4.90
2022-11-08T21:10:13.621Z,4.90
2022-11-08T21:15:27.179Z,4.70
2022-11-08T21:20:32.567Z,4.80
2022-11-08T21:25:35.849Z,4.70
2022-11-08T21:30:39.718Z,4.80
2022-11-08T21:35:43.482Z,4.70
2022-11-08T21:40:47.622Z,4.60
2022-11-08T21:45:51.181Z,4.60
2022-11-08T21:51:04.991Z,4.40
2022-11-08T21:56:07.998Z,4.50
2022-11-08T22:01:11.165Z,4.40
2022-11-08T22:06:14.510Z,4.20
2022-11-08T22:11:17.614Z,4.40
2022-11-08T22:16:20.309Z,4.50
2022-11-08T22:21:38.549Z,4.20
2022-11-08T22:26:42.395Z,4.20
2022-11-08T22:31:45.586Z,4.20
2022-11-08T22:36:48.190Z,4.20
2022-11-08T22:41:54.057Z,4.20
2022-11-08T22:46:57.050Z,4.20
2022-11-08T22:51:59.861Z,4.20
2022-11-08T22:57:04.605Z,4.20
2022-11-08T23:02:07.317Z,4.10
2022-11-08T23:07:10.181Z,4.00
2022-11-08T23:12:31.021Z,3.90
2022-11-08T23:17:33.816Z,4.00
2022-11-08T23:22:54.841Z,4.00
2022-11-08T23:28:15.968Z,4.00
2022-11-08T23:33:18.852Z,4.00
2022-11-08T23:38:22.706Z,3.70
2022-11-08T23:43:43.446Z,3.70
2022-11-08T23:48:45.263Z,3.80
2022-11-08T23:53:47.042Z,3.70
2022-11-08T23:58:49.530Z,3.80
